Time;durP1;ratioP1;P1;durP2;ratioP2;P2;SDS_P1;SDS_P2;PMS_P1;PMS_P2;Temp;Humidity;BMP_temperature;BMP_pressure;BME280_temperature;BME280_humidity;BME280_pressure;Samples;Min_cycle;Max_cycle;Signal;HPM_P1;HPM_P2
2022/10/03 00:00:38;;;;;;;5.97;3.03;;;;;;;10.04;100.00;100967.09;5083111;28;20655;-80
2022/10/03 00:03:22;;;;;;;5.73;2.40;;;;;;;10.00;100.00;100968.00;5082801;28;20716;-80
2022/10/03 00:06:17;;;;;;;14.50;2.40;;;;;;;10.03;100.00;100967.09;5082281;28;20863;-80
2022/10/03 00:09:06;;;;;;;16.93;3.00;;;;;;;10.01;100.00;100968.88;5080212;28;20209;-80
2022/10/03 00:11:47;;;;;;;9.57;2.43;;;;;;;9.92;100.00;100969.81;5081364;28;20205;-78
2022/10/03 00:14:22;;;;;;;17.90;3.23;;;;;;;9.93;100.00;100959.38;5081029;28;20201;-80
2022/10/03 00:16:59;;;;;;;10.83;2.27;;;;;;;9.90;100.00;100968.97;5080843;28;20218;-80
2022/10/03 00:19:36;;;;;;;9.90;2.80;;;;;;;9.89;100.00;100972.44;5081021;28;20195;-80
2022/10/03 00:22:17;;;;;;;10.70;2.13;;;;;;;9.94;100.00;100965.44;5080933;28;20190;-79
2022/10/03 00:24:56;;;;;;;18.00;2.67;;;;;;;9.96;100.00;100981.09;5079285;28;20224;-78
2022/10/03 00:27:33;;;;;;;6.70;2.13;;;;;;;9.94;100.00;100978.50;5076222;28;20192;-80
2022/10/03 00:30:11;;;;;;;12.47;2.57;;;;;;;10.06;100.00;100975.78;5060707;28;20214;-79
2022/10/03 00:32:57;;;;;;;8.63;2.40;;;;;;;10.00;100.00;100990.63;5061272;28;20213;-79
2022/10/03 00:35:35;;;;;;;14.20;1.80;;;;;;;9.97;100.00;100988.03;5061315;28;20279;-80
2022/10/03 00:38:21;;;;;;;13.20;2.40;;;;;;;9.93;100.00;100998.50;5061756;28;20205;-80
2022/10/03 00:41:12;;;;;;;6.30;2.07;;;;;;;9.98;100.00;100997.59;5061285;28;20187;-80
2022/10/03 00:44:18;;;;;;;10.63;2.20;;;;;;;9.95;100.00;101006.31;5060868;28;20225;-80
2022/10/03 00:47:06;;;;;;;10.03;2.50;;;;;;;9.91;100.00;101010.69;5061500;28;20224;-80
2022/10/03 00:50:21;;;;;;;13.93;2.33;;;;;;;9.97;100.00;101008.88;5070371;28;20210;-78
2022/10/03 00:53:10;;;;;;;10.40;1.93;;;;;;;9.99;100.00;101017.56;5016822;28;20696;-78
2022/10/03 00:55:55;;;;;;;12.20;2.90;;;;;;;10.00;100.00;101022.78;5071229;28;20258;-79
2022/10/03 00:58:47;;;;;;;8.57;2.23;;;;;;;10.00;100.00;101019.31;5090319;28;20193;-79
2022/10/03 01:01:29;;;;;;;10.20;2.50;;;;;;;10.03;100.00;101035.81;5088013;28;20209;-78
2022/10/03 01:04:09;;;;;;;7.67;1.93;;;;;;;10.07;100.00;101041.88;5079782;28;20219;-79
2022/10/03 01:06:44;;;;;;;11.47;2.67;;;;;;;10.13;100.00;101045.28;5079010;28;20225;-79
2022/10/03 01:09:22;;;;;;;6.27;2.13;;;;;;;10.20;100.00;101042.63;5078810;28;20209;-77
2022/10/03 01:12:13;;;;;;;11.07;2.30;;;;;;;10.21;100.00;101052.19;5080101;28;20204;-77
2022/10/03 01:14:56;;;;;;;9.57;1.83;;;;;;;10.17;100.00;101055.69;5079420;28;20691;-77
2022/10/03 01:17:34;;;;;;;7.67;2.03;;;;;;;10.13;100.00;101052.25;5079952;28;20187;-78
2022/10/03 01:20:19;;;;;;;8.27;2.17;;;;;;;10.13;100.00;101047.06;5079196;28;20184;-78
2022/10/03 01:23:23;;;;;;;13.40;2.33;;;;;;;10.10;100.00;101052.28;5079466;28;20639;-78
2022/10/03 01:25:56;;;;;;;9.77;2.97;;;;;;;10.13;100.00;101047.06;5078538;28;20220;-78
2022/10/03 01:31:28;;;;;;;5.57;2.17;;;;;;;10.06;100.00;101055.78;5079546;28;20184;-77
2022/10/03 01:34:03;;;;;;;6.93;1.80;;;;;;;10.03;100.00;101056.69;5078963;28;20189;-77
2022/10/03 01:36:35;;;;;;;10.73;2.10;;;;;;;10.08;100.00;101062.72;5078454;28;20319;-79
2022/10/03 01:39:11;;;;;;;8.90;1.67;;;;;;;10.17;100.00;101063.53;5077304;28;20210;-79
2022/10/03 01:41:50;;;;;;;7.50;2.20;;;;;;;10.17;100.00;101067.03;5078690;28;20205;-80
2022/10/03 01:44:23;;;;;;;10.57;2.77;;;;;;;10.21;100.00;101075.66;5078357;28;20213;-78
2022/10/03 01:46:54;;;;;;;9.17;2.10;;;;;;;10.27;100.00;101084.34;5078438;28;20327;-77
2022/10/03 01:49:27;;;;;;;9.97;2.60;;;;;;;10.33;100.00;101086.94;5078705;28;20219;-79
2022/10/03 01:52:03;;;;;;;12.93;2.47;;;;;;;10.29;100.00;101095.63;5079022;28;20193;-77
2022/10/03 01:54:40;;;;;;;7.53;2.37;;;;;;;10.32;100.00;101098.22;5078571;28;20188;-78
2022/10/03 01:57:15;;;;;;;9.67;2.33;;;;;;;10.29;100.00;101095.63;5072687;28;20200;-80
2022/10/03 01:59:52;;;;;;;7.27;1.90;;;;;;;10.33;100.00;101105.19;5079432;28;20196;-78
2022/10/03 02:02:28;;;;;;;6.13;1.93;;;;;;;10.45;100.00;101101.63;5078253;28;20187;-77
2022/10/03 02:05:03;;;;;;;8.73;1.60;;;;;;;10.51;100.00;101112.00;5078097;28;20230;-77
2022/10/03 02:07:40;;;;;;;6.90;1.67;;;;;;;10.58;100.00;101106.75;5077409;28;20208;-78
2022/10/03 02:10:18;;;;;;;10.13;3.27;;;;;;;10.63;100.00;101121.50;5077504;28;20209;-77
2022/10/03 02:12:53;;;;;;;12.03;2.13;;;;;;;10.65;100.00;101126.72;5077063;28;20194;-77
2022/10/03 02:15:26;;;;;;;6.00;1.70;;;;;;;10.66;100.00;101126.69;5077197;28;20227;-77
2022/10/03 02:17:57;;;;;;;8.53;2.10;;;;;;;10.71;100.00;101139.72;5077278;28;20216;-77
2022/10/03 02:20:30;;;;;;;7.23;2.10;;;;;;;10.72;100.00;101137.09;5077283;28;20581;-78
2022/10/03 02:22:58;;;;;;;6.03;1.37;;;;;;;10.71;100.00;101145.78;5077739;28;20189;-78
2022/10/03 02:25:31;;;;;;;10.03;2.70;;;;;;;10.66;100.00;101139.75;5070821;28;20234;-79
2022/10/03 02:28:34;;;;;;;7.87;1.60;;;;;;;10.66;100.00;101155.44;5078569;28;20196;-77
2022/10/03 02:31:25;;;;;;;7.83;1.87;;;;;;;10.69;100.00;101158.00;5077454;28;20479;-77
2022/10/03 02:34:30;;;;;;;7.03;1.60;;;;;;;10.66;100.00;101160.66;5078624;28;20542;-78
2022/10/03 02:37:36;;;;;;;13.93;2.50;;;;;;;10.66;100.00;101159.75;5077644;28;20253;-79
2022/10/03 02:40:39;;;;;;;4.87;1.13;;;;;;;10.62;100.00;101161.53;5077126;28;20191;-79
2022/10/03 02:43:48;;;;;;;8.83;1.77;;;;;;;10.62;100.00;101156.28;5078166;28;20214;-77
2022/10/03 02:47:08;;;;;;;10.50;1.57;;;;;;;10.65;100.00;101153.69;5077088;28;20222;-79
2022/10/03 02:50:17;;;;;;;8.53;1.80;;;;;;;10.62;100.00;101155.44;5077424;28;20686;-78
2022/10/03 02:53:29;;;;;;;9.30;1.50;;;;;;;10.66;100.00;101149.31;5073703;28;20211;-80
2022/10/03 02:56:38;;;;;;;7.57;1.83;;;;;;;10.64;100.00;101156.28;5015865;28;20224;-78
2022/10/03 02:59:44;;;;;;;11.13;2.07;;;;;;;10.57;100.00;101152.00;5075369;28;20210;-77
2022/10/03 03:02:53;;;;;;;10.60;2.00;;;;;;;10.51;100.00;101158.13;5080878;28;20203;-77
2022/10/03 03:05:36;;;;;;;5.77;1.40;;;;;;;10.52;100.00;101155.53;5081262;28;20228;-79
2022/10/03 03:08:32;;;;;;;10.30;2.17;;;;;;;10.60;100.00;101162.41;5081447;28;20384;-77
2022/10/03 03:11:17;;;;;;;7.23;2.93;;;;;;;10.65;100.00;101158.91;5079283;28;20211;-79
2022/10/03 03:14:05;;;;;;;10.83;3.37;;;;;;;10.69;100.00;101173.66;5080979;28;20215;-78
2022/10/03 03:16:45;;;;;;;7.07;1.60;;;;;;;10.71;100.00;101173.66;5081025;28;20252;-77
2022/10/03 03:19:26;;;;;;;14.80;2.20;;;;;;;10.80;100.00;101183.16;5080555;28;20203;-79
2022/10/03 03:22:01;;;;;;;7.33;1.90;;;;;;;10.80;100.00;101191.00;5080343;28;20218;-77
2022/10/03 03:24:52;;;;;;;6.43;1.60;;;;;;;10.93;100.00;101203.06;5080023;28;20219;-77
2022/10/03 03:27:43;;;;;;;9.13;2.03;;;;;;;10.79;100.00;101197.09;5076634;28;20206;-77
2022/10/03 03:30:12;;;;;;;7.17;2.00;;;;;;;10.79;100.00;101191.88;5061045;28;20220;-79
2022/10/03 03:32:55;;;;;;;7.70;2.03;;;;;;;10.70;100.00;101201.53;5060447;28;20213;-77
2022/10/03 03:35:35;;;;;;;9.00;2.00;;;;;;;10.70;100.00;101198.03;5060278;28;20226;-78
2022/10/03 03:38:13;;;;;;;7.23;2.03;;;;;;;10.61;100.00;101198.97;5062560;28;20207;-79
2022/10/03 03:40:51;;;;;;;9.77;1.90;;;;;;;10.58;100.00;101196.34;5063713;28;20235;-81
2022/10/03 03:43:33;;;;;;;7.87;2.57;;;;;;;10.57;100.00;101205.09;5069298;28;20187;-83
2022/10/03 03:46:12;;;;;;;7.90;2.10;;;;;;;10.53;100.00;101193.78;5068150;28;20579;-83
2022/10/03 03:49:00;;;;;;;4.93;1.53;;;;;;;10.62;100.00;101192.84;5064432;28;20204;-80
2022/10/03 03:51:35;;;;;;;10.73;2.53;;;;;;;10.49;100.00;101191.22;5063854;28;20201;-79
2022/10/03 03:54:26;;;;;;;9.23;2.47;;;;;;;10.44;100.00;101179.94;5063845;28;20227;-79
2022/10/03 03:57:13;;;;;;;8.37;2.57;;;;;;;10.41;100.00;101173.00;5075146;28;20201;-78
2022/10/03 03:59:53;;;;;;;11.07;2.40;;;;;;;10.39;100.00;101169.53;5083704;28;20208;-78
2022/10/03 04:02:31;;;;;;;6.67;2.00;;;;;;;10.34;100.00;101173.91;5084285;28;20212;-79
2022/10/03 04:05:13;;;;;;;8.27;2.33;;;;;;;10.39;100.00;101169.53;5083782;28;20706;-80
2022/10/03 04:07:52;;;;;;;8.30;2.23;;;;;;;10.42;100.00;101174.72;5084608;28;20210;-79
2022/10/03 04:10:31;;;;;;;6.43;2.27;;;;;;;10.35;100.00;101183.47;5083978;28;20196;-80
2022/10/03 04:13:21;;;;;;;10.03;2.53;;;;;;;10.34;100.00;101172.16;5080870;28;20554;-77
2022/10/03 04:16:00;;;;;;;6.53;1.77;;;;;;;10.37;100.00;101178.25;5079711;28;20228;-77
2022/10/03 04:18:58;;;;;;;6.13;1.73;;;;;;;10.32;100.00;101175.66;5078817;28;20208;-79
2022/10/03 04:21:54;;;;;;;13.43;2.60;;;;;;;10.30;100.00;101183.47;5078734;28;20193;-77
2022/10/03 04:24:38;;;;;;;5.53;1.97;;;;;;;10.25;100.00;101187.00;5078717;28;20225;-77
2022/10/03 04:27:20;;;;;;;10.57;2.30;;;;;;;10.23;100.00;101179.16;5072372;28;20216;-77
2022/10/03 04:29:57;;;;;;;14.30;2.30;;;;;;;10.26;100.00;101197.38;5078621;28;20213;-77
2022/10/03 04:32:41;;;;;;;7.50;1.80;;;;;;;10.24;100.00;101193.94;5078966;28;20193;-77
2022/10/03 04:35:32;;;;;;;13.83;3.23;;;;;;;10.25;100.00;101202.63;5077934;28;20303;-77
2022/10/03 04:38:11;;;;;;;7.77;2.40;;;;;;;10.22;100.00;101192.22;5078464;28;20194;-80
2022/10/03 04:40:48;;;;;;;8.87;1.93;;;;;;;10.23;100.00;101200.03;5080121;28;20205;-79
2022/10/03 04:43:29;;;;;;;13.67;2.20;;;;;;;10.19;100.00;101192.22;5080185;28;20186;-81
2022/10/03 04:46:19;;;;;;;7.90;2.37;;;;;;;10.22;100.00;101203.50;5079872;28;20315;-79
2022/10/03 04:48:54;;;;;;;7.60;2.33;;;;;;;10.34;100.00;101210.44;5077744;28;20205;-77
2022/10/03 04:51:35;;;;;;;6.13;1.80;;;;;;;10.29;100.00;101213.03;5077560;28;20204;-78
2022/10/03 04:54:14;;;;;;;7.27;2.07;;;;;;;10.31;100.00;101218.28;5083305;23;20238;-75
2022/10/03 04:56:52;;;;;;;7.40;1.33;;;;;;;10.36;100.00;101224.34;5016630;28;20233;-75
2022/10/03 04:59:31;;;;;;;4.27;1.37;;;;;;;10.39;100.00;101231.31;5013723;28;20672;-75
2022/10/03 05:02:04;;;;;;;6.80;1.90;;;;;;;10.45;100.00;101228.66;5013357;28;20207;-75
2022/10/03 05:04:38;;;;;;;5.27;1.40;;;;;;;10.51;100.00;101241.69;5012998;28;20231;-76
2022/10/03 05:07:11;;;;;;;7.37;1.50;;;;;;;10.55;100.00;101237.31;5013222;28;20218;-75
2022/10/03 05:09:46;;;;;;;9.13;1.70;;;;;;;10.50;100.00;101230.38;5013588;28;20396;-75
2022/10/03 05:12:17;;;;;;;8.50;1.93;;;;;;;10.55;100.00;101239.91;5012783;28;20211;-75
2022/10/03 05:14:57;;;;;;;7.17;1.40;;;;;;;10.52;100.00;101236.44;5012755;28;20636;-75
2022/10/03 05:17:33;;;;;;;8.40;1.60;;;;;;;10.53;100.00;101240.78;5013309;28;20229;-75
2022/10/03 05:20:37;;;;;;;9.00;1.53;;;;;;;10.53;100.00;101246.00;5012948;28;20213;-75
2022/10/03 05:23:24;;;;;;;10.70;1.50;;;;;;;10.56;100.00;101249.47;4991882;28;20214;-75
2022/10/03 05:26:01;;;;;;;4.70;1.90;;;;;;;10.60;100.00;101241.59;5012502;28;20704;-75
2022/10/03 05:28:39;;;;;;;13.77;3.87;;;;;;;10.49;100.00;101246.91;5009921;28;20196;-75
2022/10/03 05:31:20;;;;;;;5.73;1.63;;;;;;;10.56;100.00;101239.03;5012986;28;20215;-74
2022/10/03 05:33:52;;;;;;;10.40;2.30;;;;;;;10.43;100.00;101243.47;5012068;28;20205;-75
2022/10/03 05:36:29;;;;;;;5.73;1.90;;;;;;;10.34;100.00;101241.75;5011919;28;20675;-74
2022/10/03 05:39:26;;;;;;;5.73;1.83;;;;;;;10.31;100.00;101240.03;5011111;28;20226;-74
2022/10/03 05:41:55;;;;;;;10.67;2.30;;;;;;;10.35;100.00;101238.28;5009284;28;20207;-75
2022/10/03 05:44:39;;;;;;;6.87;1.97;;;;;;;10.31;100.00;101240.03;5011957;28;20749;-75
2022/10/03 05:47:43;;;;;;;9.10;2.00;;;;;;;10.31;100.00;101241.78;5009364;28;20203;-74
2022/10/03 05:50:27;;;;;;;10.87;2.17;;;;;;;10.28;100.00;101242.59;5011057;28;20293;-74
2022/10/03 05:53:09;;;;;;;9.57;1.87;;;;;;;10.28;100.00;101252.19;5012151;28;20215;-75
2022/10/03 05:55:45;;;;;;;11.63;2.13;;;;;;;10.27;100.00;101243.50;5010763;28;20229;-75
2022/10/03 05:58:53;;;;;;;7.20;2.30;;;;;;;10.27;100.00;101248.72;5009981;28;20203;-74
2022/10/03 06:01:58;;;;;;;12.97;2.37;;;;;;;10.30;100.00;101251.34;5011297;28;20245;-74
2022/10/03 06:04:58;;;;;;;8.70;2.07;;;;;;;10.31;100.00;101258.28;5006402;28;20593;-74
2022/10/03 06:07:29;;;;;;;9.83;2.53;;;;;;;10.29;100.00;101257.41;5011795;28;20228;-74
2022/10/03 06:10:32;;;;;;;4.93;2.47;;;;;;;10.28;100.00;101270.44;5011929;28;20222;-74
2022/10/03 06:13:12;;;;;;;9.10;3.53;;;;;;;10.30;100.00;101266.13;5010753;28;20215;-74
2022/10/03 06:15:53;;;;;;;9.17;2.50;;;;;;;10.26;100.00;101260.00;5010753;28;20225;-74
2022/10/03 06:18:55;;;;;;;10.30;2.73;;;;;;;10.29;100.00;101262.63;5011025;28;20199;-74
2022/10/03 06:21:44;;;;;;;9.43;3.43;;;;;;;10.38;100.00;101273.91;5011151;28;20202;-74
2022/10/03 06:24:34;;;;;;;6.50;2.27;;;;;;;10.41;100.00;101274.78;5009931;28;20199;-74
2022/10/03 06:27:51;;;;;;;12.13;2.30;;;;;;;10.41;100.00;101282.63;5016480;28;20220;-74
2022/10/03 06:30:22;;;;;;;11.67;2.63;;;;;;;10.48;100.00;101288.66;5014783;28;20198;-74
2022/10/03 06:33:39;;;;;;;4.63;2.27;;;;;;;10.45;100.00;101284.34;5013325;28;20211;-75
2022/10/03 06:36:32;;;;;;;10.17;3.07;;;;;;;10.53;100.00;101299.97;5012820;28;20229;-74
2022/10/03 06:39:56;;;;;;;7.60;2.60;;;;;;;10.57;100.00;101311.25;5014703;28;20207;-74
2022/10/03 06:42:55;;;;;;;7.77;2.97;;;;;;;10.52;100.00;101306.94;5014895;28;20200;-74
2022/10/03 06:45:51;;;;;;;7.70;2.50;;;;;;;10.56;100.00;101312.97;5014577;28;20229;-75
2022/10/03 06:48:47;;;;;;;5.83;2.33;;;;;;;10.56;100.00;101312.13;5014169;28;20199;-74
2022/10/03 06:51:39;;;;;;;7.10;2.40;;;;;;;10.64;100.00;101318.16;5013990;28;20213;-74
2022/10/03 06:54:24;;;;;;;8.73;2.83;;;;;;;10.65;100.00;101317.31;5012343;28;20691;-74
2022/10/03 06:57:13;;;;;;;6.93;3.20;;;;;;;10.66;100.00;101311.19;5014498;28;20223;-75
2022/10/03 07:00:12;;;;;;;8.80;2.77;;;;;;;10.68;100.00;101305.09;5014231;28;20216;-74
2022/10/03 07:03:21;;;;;;;10.57;3.07;;;;;;;10.68;100.00;101301.59;5013975;28;20198;-74
2022/10/03 07:06:22;;;;;;;15.30;3.23;;;;;;;10.77;100.00;101298.97;5012347;28;20225;-74
2022/10/03 07:09:39;;;;;;;8.93;3.13;;;;;;;10.79;100.00;101312.00;4995733;28;20219;-75
2022/10/03 07:12:46;;;;;;;5.87;2.00;;;;;;;10.79;100.00;101322.47;4995522;28;20820;-75
2022/10/03 07:15:42;;;;;;;6.13;2.23;;;;;;;10.88;100.00;101322.38;4995236;28;20592;-75
2022/10/03 07:18:36;;;;;;;7.40;2.73;;;;;;;11.00;100.00;101326.66;4995761;28;20293;-74
2022/10/03 07:21:27;;;;;;;9.70;2.63;;;;;;;11.02;100.00;101310.13;4995975;28;20215;-75
2022/10/03 07:24:13;;;;;;;4.80;1.80;;;;;;;11.04;100.00;101326.66;4995577;28;20215;-75
2022/10/03 07:27:21;;;;;;;6.10;2.20;;;;;;;11.13;100.00;101328.31;5013051;28;20235;-75
2022/10/03 07:30:05;;;;;;;8.93;3.10;;;;;;;11.15;100.00;101336.16;4973382;28;20208;-75
2022/10/03 07:33:20;;;;;;;4.97;2.17;;;;;;;11.23;100.00;101336.97;4973757;28;20211;-76
2022/10/03 07:39:41;;;;;;;12.87;4.00;;;;;;;11.41;100.00;101355.13;5014794;28;20214;-74
2022/10/03 07:42:41;;;;;;;6.50;2.60;;;;;;;11.49;100.00;101374.22;5014884;28;20267;-76
2022/10/03 07:45:38;;;;;;;7.20;2.27;;;;;;;11.53;100.00;101389.03;5014960;28;20231;-75
2022/10/03 07:48:38;;;;;;;8.10;2.53;;;;;;;11.56;100.00;101403.84;5014358;28;20206;-75
2022/10/03 07:51:29;;;;;;;9.47;2.70;;;;;;;11.64;100.00;101398.56;5014893;28;20691;-75
2022/10/03 07:54:31;;;;;;;6.33;2.70;;;;;;;11.81;100.00;101401.00;5014924;28;20800;-75
2022/10/03 07:57:37;;;;;;;9.33;3.03;;;;;;;11.77;100.00;101407.16;5021917;28;20207;-75
2022/10/03 08:00:15;;;;;;;11.00;4.03;;;;;;;11.72;100.00;101412.44;5008334;28;20207;-75
2022/10/03 08:03:11;;;;;;;6.23;2.93;;;;;;;11.84;100.00;101388.78;5014393;28;20210;-75
2022/10/03 08:05:49;;;;;;;7.10;2.77;;;;;;;11.88;100.00;101411.41;5013942;28;20233;-75
2022/10/03 08:08:42;;;;;;;10.70;3.87;;;;;;;11.95;100.00;101416.63;5014368;28;20214;-75
2022/10/03 08:11:40;;;;;;;6.63;3.07;;;;;;;11.95;100.00;101422.72;5014153;28;20203;-75
2022/10/03 08:14:19;;;;;;;5.97;3.00;;;;;;;12.02;100.00;101418.31;4993878;28;20218;-74
2022/10/03 08:17:26;;;;;;;7.90;4.53;;;;;;;12.15;100.00;101437.38;5013868;28;20235;-75
2022/10/03 08:20:23;;;;;;;16.93;10.90;;;;;;;12.15;99.10;101453.97;4989615;28;20207;-75
2022/10/03 08:23:02;;;;;;;7.33;2.90;;;;;;;12.19;98.63;101470.47;5013829;28;20203;-75
2022/10/03 08:25:43;;;;;;;5.43;3.80;;;;;;;12.22;99.36;101460.84;5013893;28;20254;-75
2022/10/03 08:28:40;;;;;;;13.37;2.87;;;;;;;12.23;99.24;101451.25;5018519;28;20313;-75
2022/10/03 08:31:42;;;;;;;10.77;3.67;;;;;;;12.32;98.53;101480.81;5005935;28;20251;-74
2022/10/03 08:34:34;;;;;;;8.20;3.30;;;;;;;12.36;98.89;101468.59;5012732;28;20226;-75
2022/10/03 08:37:34;;;;;;;7.53;3.23;;;;;;;12.38;98.06;101466.81;5011031;28;20196;-74
2022/10/03 08:40:38;;;;;;;7.60;3.53;;;;;;;12.51;98.57;101475.44;5008369;28;20580;-75
2022/10/03 08:43:37;;;;;;;7.33;2.37;;;;;;;12.58;97.56;101477.09;5010895;28;20203;-75
2022/10/03 08:46:28;;;;;;;14.27;1.67;;;;;;;12.68;95.12;101536.34;5010741;28;20231;-76
2022/10/03 08:49:09;;;;;;;8.17;2.30;;;;;;;12.77;95.19;101535.41;5012151;28;20199;-76
2022/10/03 08:51:56;;;;;;;6.33;2.10;;;;;;;12.76;94.94;101559.00;5012962;28;20674;-76
2022/10/03 08:54:50;;;;;;;6.23;1.70;;;;;;;12.76;94.63;101559.84;5011197;28;20209;-77
2022/10/03 08:57:27;;;;;;;4.60;1.60;;;;;;;12.87;94.01;101573.72;5013387;28;20208;-75
2022/10/03 09:00:08;;;;;;;5.27;1.83;;;;;;;12.94;94.58;101565.78;5012416;28;20211;-75
2022/10/03 09:03:23;;;;;;;6.97;1.63;;;;;;;13.04;93.48;101578.81;5012743;28;20283;-76
2022/10/03 09:06:23;;;;;;;7.43;1.47;;;;;;;13.10;93.99;101577.84;4984856;28;20244;-76
2022/10/03 09:09:22;;;;;;;8.23;1.60;;;;;;;13.17;92.95;101581.28;4318142;28;10000823;-76
2022/10/03 09:12:22;;;;;;;16.10;3.83;;;;;;;13.28;92.93;101584.66;5009979;28;20703;-75
2022/10/03 09:15:29;;;;;;;6.00;1.57;;;;;;;13.27;91.39;101617.00;5010158;28;20716;-76
2022/10/03 09:18:32;;;;;;;10.17;1.60;;;;;;;13.35;89.73;101675.50;4995947;28;20215;-77
2022/10/03 09:21:37;;;;;;;7.97;1.63;;;;;;;13.44;89.52;101687.66;5010327;28;20208;-77
2022/10/03 09:24:44;;;;;;;5.90;1.40;;;;;;;13.60;90.04;101694.47;5010117;28;20215;-76
2022/10/03 09:27:27;;;;;;;9.67;1.63;;;;;;;13.64;88.72;101711.06;5018992;28;20425;-78
2022/10/03 09:30:24;;;;;;;9.43;1.50;;;;;;;13.69;89.17;101710.09;5002990;28;20273;-77
2022/10/03 09:33:29;;;;;;;17.10;2.73;;;;;;;13.69;88.34;101717.09;5010265;28;20213;-77
2022/10/03 09:36:24;;;;;;;6.63;1.27;;;;;;;13.76;89.14;101702.19;5009329;28;20225;-77
2022/10/03 09:39:17;;;;;;;5.50;1.30;;;;;;;13.88;89.13;101684.50;5009709;28;20211;-77
2022/10/03 09:42:15;;;;;;;9.30;2.80;;;;;;;13.91;87.13;101751.84;5009486;28;20207;-77
2022/10/03 09:45:21;;;;;;;7.47;2.73;;;;;;;14.07;88.55;101708.78;5009584;28;20630;-77
2022/10/03 09:48:18;;;;;;;8.93;2.47;;;;;;;14.35;87.43;101712.78;5009886;28;20267;-77
2022/10/03 09:51:21;;;;;;;7.70;1.83;;;;;;;14.33;83.73;101817.88;5007612;28;20213;-77
2022/10/03 09:54:22;;;;;;;10.50;2.67;;;;;;;14.21;84.41;101841.66;4997924;28;20245;-77
2022/10/03 09:57:21;;;;;;;5.10;1.47;;;;;;;14.23;84.83;101821.50;5019026;28;20219;-77
2022/10/03 10:00:03;;;;;;;7.07;1.20;;;;;;;14.20;85.10;101798.75;5007284;28;20209;-78
2022/10/03 10:02:56;;;;;;;6.43;1.37;;;;;;;14.41;84.77;101796.75;5009408;28;20212;-77
2022/10/03 10:06:05;;;;;;;5.47;1.37;;;;;;;14.34;83.54;101821.38;5009211;28;20838;-77
2022/10/03 10:09:05;;;;;;;11.33;2.57;;;;;;;14.30;84.02;101823.16;5009349;28;20220;-77
2022/10/03 10:11:48;;;;;;;6.83;1.10;;;;;;;14.39;83.51;101824.78;5009290;28;20221;-76
2022/10/03 10:14:32;;;;;;;8.57;1.23;;;;;;;14.41;83.51;101830.91;5009096;28;20204;-77
2022/10/03 10:17:54;;;;;;;7.70;1.33;;;;;;;14.51;84.14;101819.41;5008958;28;20209;-76
2022/10/03 10:20:45;;;;;;;5.60;1.37;;;;;;;14.47;82.97;101820.34;4948302;29;20219;-77
2022/10/03 10:23:50;;;;;;;7.57;1.53;;;;;;;14.60;82.57;101842.94;4937587;29;20231;-76
2022/10/03 10:26:52;;;;;;;6.37;1.90;;;;;;;14.64;84.00;101814.88;5005967;28;20698;-77
2022/10/03 10:29:56;;;;;;;4.60;1.37;;;;;;;14.54;82.36;101845.63;4975019;28;20211;-77
2022/10/03 10:32:58;;;;;;;7.17;1.53;;;;;;;14.62;81.72;101854.31;4988661;28;20559;-76
2022/10/03 10:36:05;;;;;;;4.03;1.40;;;;;;;14.68;82.42;101843.72;4989425;28;20242;-76
2022/10/03 10:38:47;;;;;;;4.13;1.87;;;;;;;14.73;80.79;101855.91;4989504;28;20216;-76
2022/10/03 10:41:51;;;;;;;9.67;1.90;;;;;;;14.62;81.19;101849.06;4989569;28;20706;-76
2022/10/03 10:44:58;;;;;;;7.13;1.40;;;;;;;14.44;81.94;101839.63;4990009;28;20217;-77
2022/10/03 10:47:59;;;;;;;5.13;1.30;;;;;;;14.56;81.48;101829.84;4989289;28;20229;-77
2022/10/03 10:50:56;;;;;;;5.97;1.70;;;;;;;14.60;81.85;101824.56;4989368;28;20217;-76
2022/10/03 10:54:06;;;;;;;5.03;1.70;;;;;;;14.58;81.67;101831.59;4989622;28;20213;-76
2022/10/03 10:57:01;;;;;;;5.43;1.50;;;;;;;14.53;81.04;101825.50;4970320;28;20303;-77
2022/10/03 11:00:03;;;;;;;3.37;0.90;;;;;;;14.57;80.09;101856.16;5011363;28;20213;-76
2022/10/03 11:03:05;;;;;;;5.93;1.50;;;;;;;14.70;78.63;101896.25;5008678;28;20217;-76
2022/10/03 11:05:47;;;;;;;6.03;1.23;;;;;;;14.87;78.66;101919.72;4965200;28;20271;-76
2022/10/03 11:08:50;;;;;;;7.00;1.50;;;;;;;14.91;79.46;101891.63;5008845;28;20212;-76
2022/10/03 11:11:52;;;;;;;3.40;1.00;;;;;;;15.09;78.14;101896.63;5010591;28;20212;-76
2022/10/03 11:15:04;;;;;;;2.93;1.10;;;;;;;15.33;76.94;101926.97;5012784;28;20213;-75
2022/10/03 11:18:02;;;;;;;3.33;1.60;;;;;;;15.32;76.65;101967.34;5012596;28;20586;-77
2022/10/03 11:21:19;;;;;;;3.80;0.93;;;;;;;15.18;75.41;101992.94;4993198;28;20223;-77
2022/10/03 11:24:10;;;;;;;6.70;1.30;;;;;;;15.03;75.65;101996.66;4960304;28;20221;-76
2022/10/03 11:27:10;;;;;;;2.53;0.70;;;;;;;15.10;76.39;101979.88;4994518;28;20237;-76
2022/10/03 11:30:17;;;;;;;6.40;1.00;;;;;;;15.17;76.91;101946.50;5013561;28;20583;-76
2022/10/03 11:33:24;;;;;;;3.33;0.90;;;;;;;15.01;76.30;101965.09;5012304;28;20231;-76
2022/10/03 11:36:18;;;;;;;2.97;0.60;;;;;;;15.04;76.61;101930.91;5011678;28;20417;-76
2022/10/03 11:39:00;;;;;;;4.53;0.87;;;;;;;15.17;78.00;101892.13;5012251;28;20222;-76
2022/10/03 11:41:39;;;;;;;5.17;1.20;;;;;;;15.93;76.15;101894.44;5011657;28;20218;-76
2022/10/03 11:44:22;;;;;;;3.77;1.53;;;;;;;16.64;71.76;102004.66;5011878;28;20223;-77
2022/10/03 11:47:02;;;;;;;5.33;1.17;;;;;;;16.98;68.39;102172.00;5012778;28;20240;-77
2022/10/03 11:49:58;;;;;;;3.10;0.77;;;;;;;16.34;68.71;102195.88;5014280;28;20233;-77
2022/10/03 11:52:31;;;;;;;4.10;1.40;;;;;;;16.87;68.56;102190.69;5011575;28;20210;-76
2022/10/03 11:55:25;;;;;;;5.23;1.10;;;;;;;18.11;65.30;102263.16;5012010;28;20701;-77
2022/10/03 11:58:03;;;;;;;4.67;0.87;;;;;;;19.00;62.56;102346.69;5019499;28;20220;-77
2022/10/03 12:00:34;;;;;;;3.43;1.00;;;;;;;18.44;60.71;102451.94;5011364;28;20208;-76
2022/10/03 12:03:13;;;;;;;3.10;1.10;;;;;;;17.44;63.72;102422.84;5012141;28;20214;-77
2022/10/03 12:05:51;;;;;;;2.53;1.00;;;;;;;17.11;65.35;102326.59;5013883;28;20242;-76
2022/10/03 12:11:20;;;;;;;3.23;1.17;;;;;;;16.19;68.58;102222.41;5016075;28;20645;-77
2022/10/03 12:14:06;;;;;;;1.80;0.80;;;;;;;15.53;70.92;102100.38;5017455;28;20314;-78
2022/10/03 12:16:52;;;;;;;1.87;0.70;;;;;;;15.43;71.31;102023.28;5015023;28;20232;-77
2022/10/03 12:19:29;;;;;;;3.77;1.50;;;;;;;15.36;71.27;102005.88;5011373;28;20208;-77
2022/10/03 12:22:03;;;;;;;4.33;1.00;;;;;;;15.39;71.74;101989.16;5010881;28;20303;-76
2022/10/03 12:24:33;;;;;;;3.53;1.37;;;;;;;15.21;72.90;101950.81;5010653;28;20217;-76
2022/10/03 12:27:11;;;;;;;6.17;0.90;;;;;;;15.22;71.63;101963.97;5014751;28;20625;-77
2022/10/03 12:29:44;;;;;;;2.13;1.00;;;;;;;15.23;71.94;101962.19;5012251;28;20718;-77
2022/10/03 12:32:20;;;;;;;2.77;0.80;;;;;;;15.15;73.38;101930.72;5011076;28;20216;-76
2022/10/03 12:34:55;;;;;;;2.70;1.00;;;;;;;15.10;74.14;101893.09;5010858;28;20218;-76
2022/10/03 12:37:41;;;;;;;4.80;1.30;;;;;;;15.12;74.26;101877.28;5011053;28;20210;-76
2022/10/03 12:40:17;;;;;;;5.10;0.90;;;;;;;15.15;75.42;101854.47;5010581;28;20212;-76
2022/10/03 12:42:54;;;;;;;4.63;1.77;;;;;;;15.20;74.29;101860.53;5010291;28;20213;-76
2022/10/03 12:45:29;;;;;;;4.20;1.23;;;;;;;15.20;74.64;101851.75;5007486;28;20229;-77
2022/10/03 12:48:13;;;;;;;3.43;0.90;;;;;;;15.04;74.91;101849.38;5010611;28;20223;-76
2022/10/03 12:50:47;;;;;;;2.97;0.80;;;;;;;15.05;74.24;101861.63;5009095;28;20195;-76
2022/10/03 12:53:26;;;;;;;3.30;0.87;;;;;;;15.10;74.28;101874.69;5009866;28;20662;-76
2022/10/03 12:56:05;;;;;;;3.70;1.07;;;;;;;15.17;74.62;101857.06;5008468;28;20234;-76
2022/10/03 12:58:43;;;;;;;2.70;0.90;;;;;;;15.24;74.75;101856.97;5009397;28;20709;-75
2022/10/03 13:01:20;;;;;;;3.70;1.57;;;;;;;15.21;74.73;101853.50;5010177;28;20212;-76
2022/10/03 13:03:51;;;;;;;6.20;1.70;;;;;;;15.03;74.03;101871.28;5008890;28;20206;-77
2022/10/03 13:06:45;;;;;;;3.47;0.93;;;;;;;15.05;75.96;101844.97;5009796;28;20238;-76